Time;durP1;ratioP1;P1;durP2;ratioP2;P2;SDS_P1;SDS_P2;PMS_P1;PMS_P2;Temp;Humidity;BMP_temperature;BMP_pressure;BME280_temperature;BME280_humidity;BME280_pressure;Samples;Min_cycle;Max_cycle;Signal;HPM_P1;HPM_P2
2021/12/28 00:00:15;;;;;;;6.80;5.63;;;9.80;99.90;;;;;;5067410;28;20918;-42
2021/12/28 00:02:45;;;;;;;5.57;5.03;;;10.00;99.90;;;;;;5067494;28;20833;-42
2021/12/28 00:05:11;;;;;;;5.00;4.53;;;9.80;99.90;;;;;;5066892;28;20526;-42
2021/12/28 00:07:38;;;;;;;6.27;5.20;;;9.80;99.90;;;;;;5061232;28;20527;-42
2021/12/28 00:10:06;;;;;;;5.63;4.60;;;9.80;99.90;;;;;;5066525;28;20416;-44
2021/12/28 00:12:34;;;;;;;5.00;4.50;;;9.70;99.90;;;;;;5068746;28;21021;-43
2021/12/28 00:15:47;;;;;;;7.63;4.90;;;9.70;99.90;;;;;;5068020;28;20951;-44
2021/12/28 00:18:02;;;;;;;6.57;4.53;;;9.70;99.90;;;;;;5065235;28;21024;-42
2021/12/28 00:20:29;;;;;;;5.83;4.53;;;9.80;99.90;;;;;;5054943;28;20480;-47
2021/12/28 00:22:55;;;;;;;4.93;4.43;;;9.70;99.90;;;;;;5074892;28;20436;-44
2021/12/28 00:25:21;;;;;;;4.90;4.40;;;9.80;99.90;;;;;;5068117;28;20443;-46
2021/12/28 00:27:47;;;;;;;5.37;4.30;;;9.70;99.90;;;;;;5068617;28;20569;-42
2021/12/28 00:30:13;;;;;;;5.80;4.60;;;9.70;99.90;;;;;;5068295;28;20189;-42
2021/12/28 00:32:39;;;;;;;5.10;4.27;;;9.70;99.90;;;;;;5068100;28;20651;-42
2021/12/28 00:35:05;;;;;;;4.60;4.20;;;9.90;99.90;;;;;;5068302;28;20550;-44
2021/12/28 00:37:31;;;;;;;5.60;4.67;;;9.80;99.90;;;;;;5061470;28;20518;-43
2021/12/28 00:39:57;;;;;;;7.93;4.30;;;9.60;99.90;;;;;;5064116;28;20876;-42
2021/12/28 00:42:23;;;;;;;6.07;4.60;;;9.70;99.90;;;;;;5068093;28;20423;-42
2021/12/28 00:44:49;;;;;;;4.77;4.23;;;9.90;99.90;;;;;;5067460;28;20675;-42
2021/12/28 00:47:15;;;;;;;4.90;4.30;;;9.90;99.90;;;;;;5068102;28;20423;-42
2021/12/28 00:49:41;;;;;;;8.63;4.47;;;9.80;99.90;;;;;;5067931;28;20832;-43
2021/12/28 00:52:07;;;;;;;5.90;3.90;;;9.70;99.90;;;;;;5064128;28;20182;-43
2021/12/28 00:54:33;;;;;;;4.40;3.50;;;9.80;99.90;;;;;;5060371;28;20407;-42
2021/12/28 00:57:01;;;;;;;5.10;4.50;;;9.60;99.90;;;;;;5067812;28;20430;-42
2021/12/28 00:59:27;;;;;;;5.10;4.07;;;9.50;99.90;;;;;;5068355;28;20248;-43
2021/12/28 01:01:52;;;;;;;5.53;4.07;;;9.60;99.90;;;;;;5067272;28;20494;-47
2021/12/28 01:04:18;;;;;;;3.90;3.50;;;9.40;99.90;;;;;;5065867;28;20459;-43
2021/12/28 01:06:44;;;;;;;4.80;4.20;;;9.60;99.90;;;;;;5065982;28;20197;-44
2021/12/28 01:09:09;;;;;;;5.80;3.73;;;9.60;99.90;;;;;;5059484;28;20197;-43
2021/12/28 01:11:35;;;;;;;6.57;3.83;;;9.70;99.90;;;;;;5067542;28;20270;-42
2021/12/28 01:14:01;;;;;;;5.50;4.20;;;9.50;99.90;;;;;;5067390;28;20193;-43
2021/12/28 01:16:26;;;;;;;5.10;3.77;;;9.40;99.90;;;;;;5067196;28;20225;-43
2021/12/28 01:18:52;;;;;;;4.23;3.83;;;9.40;99.90;;;;;;5077106;28;20185;-43
2021/12/28 01:21:19;;;;;;;6.13;4.80;;;9.40;99.90;;;;;;5087600;28;20208;-42
2021/12/28 01:23:45;;;;;;;4.50;4.07;;;9.60;99.90;;;;;;5059535;28;20255;-42
2021/12/28 01:26:11;;;;;;;5.30;3.60;;;9.40;99.90;;;;;;5067124;28;20515;-43
2021/12/28 01:28:36;;;;;;;7.13;3.80;;;9.30;99.90;;;;;;5065827;28;20415;-43
2021/12/28 01:31:03;;;;;;;5.00;3.40;;;9.30;99.90;;;;;;5067153;28;20430;-44
2021/12/28 01:33:29;;;;;;;6.93;4.03;;;9.30;99.90;;;;;;5066563;28;20411;-42
2021/12/28 01:35:55;;;;;;;5.20;3.80;;;9.50;99.90;;;;;;5067149;28;20415;-42
2021/12/28 01:38:20;;;;;;;9.33;3.60;;;9.10;99.90;;;;;;5055701;28;20427;-42
2021/12/28 01:40:46;;;;;;;7.97;3.70;;;9.20;99.90;;;;;;5067456;28;20207;-44
2021/12/28 01:43:17;;;;;;;7.30;3.97;;;9.40;99.90;;;;;;5066177;28;20651;-43
2021/12/28 01:45:51;;;;;;;5.90;3.67;;;9.20;99.90;;;;;;5067317;28;20200;-43
2021/12/28 01:48:23;;;;;;;4.83;3.60;;;9.40;99.90;;;;;;5066800;28;20415;-43
2021/12/28 01:50:52;;;;;;;5.70;3.50;;;9.20;99.90;;;;;;5066783;28;20427;-43
2021/12/28 01:53:19;;;;;;;4.83;3.60;;;9.30;99.90;;;;;;5054542;28;20433;-43
2021/12/28 01:55:48;;;;;;;6.40;4.07;;;9.20;99.90;;;;;;5065860;28;20510;-44
2021/12/28 01:58:14;;;;;;;6.73;3.87;;;9.10;99.90;;;;;;5065111;28;20450;-43
2021/12/28 02:00:43;;;;;;;5.13;3.10;;;9.10;99.90;;;;;;5066877;28;20897;-43
2021/12/28 02:03:12;;;;;;;8.80;3.30;;;9.10;99.90;;;;;;5065834;28;20424;-42
2021/12/28 02:05:39;;;;;;;4.80;3.30;;;9.10;99.90;;;;;;5066705;28;20469;-42
2021/12/28 02:08:06;;;;;;;8.07;2.93;;;9.10;99.90;;;;;;5058054;28;20436;-43
2021/12/28 02:10:33;;;;;;;4.10;3.00;;;9.10;99.90;;;;;;5060329;28;20822;-42
2021/12/28 02:12:59;;;;;;;5.27;3.10;;;9.30;99.90;;;;;;5065644;28;20423;-43
2021/12/28 02:15:25;;;;;;;5.97;3.43;;;9.10;99.90;;;;;;5066658;28;20426;-43
2021/12/28 02:17:51;;;;;;;7.80;4.77;;;9.10;99.90;;;;;;5066241;28;20540;-42
2021/12/28 02:20:19;;;;;;;8.10;3.17;;;9.10;99.90;;;;;;5087123;28;20500;-47
2021/12/28 02:22:45;;;;;;;6.70;3.00;;;8.90;99.90;;;;;;5074821;28;20782;-42
2021/12/28 02:25:13;;;;;;;5.87;3.23;;;9.10;99.90;;;;;;5060731;28;20411;-42
2021/12/28 02:27:39;;;;;;;5.20;3.40;;;9.20;99.90;;;;;;5066347;28;20422;-42
2021/12/28 02:30:08;;;;;;;9.17;3.43;;;9.30;99.90;;;;;;5066367;28;20490;-44
2021/12/28 02:32:34;;;;;;;6.10;3.30;;;9.10;99.90;;;;;;5065893;28;21036;-42
2021/12/28 02:35:00;;;;;;;8.00;3.23;;;9.40;99.90;;;;;;5065986;28;20833;-43
2021/12/28 02:37:26;;;;;;;4.20;2.87;;;9.00;99.90;;;;;;5063728;28;20478;-42
2021/12/28 02:39:52;;;;;;;5.27;3.33;;;9.10;99.90;;;;;;5056952;28;20288;-43
2021/12/28 02:42:20;;;;;;;8.73;3.87;;;9.20;99.90;;;;;;5070203;28;20426;-42
2021/12/28 02:44:54;;;;;;;9.97;4.20;;;9.10;99.90;;;;;;5069846;28;20416;-43
2021/12/28 02:47:19;;;;;;;6.47;3.57;;;9.10;99.90;;;;;;5070402;28;20434;-42
2021/12/28 02:49:45;;;;;;;7.27;3.90;;;9.10;99.90;;;;;;5070645;28;20851;-42
2021/12/28 02:52:11;;;;;;;10.70;3.70;;;9.20;99.90;;;;;;5070579;28;20181;-42
2021/12/28 02:54:38;;;;;;;6.63;3.07;;;9.20;99.90;;;;;;5059372;28;20239;-42
2021/12/28 02:57:05;;;;;;;8.77;3.70;;;9.10;99.90;;;;;;5069912;28;20197;-43
2021/12/28 02:59:30;;;;;;;8.07;3.73;;;9.30;99.90;;;;;;5069749;28;20853;-45
2021/12/28 03:01:56;;;;;;;7.70;3.43;;;9.10;99.90;;;;;;5069899;28;20471;-44
2021/12/28 03:04:24;;;;;;;6.40;3.70;;;9.10;99.90;;;;;;5069564;28;20246;-44
2021/12/28 03:06:50;;;;;;;10.00;3.57;;;9.30;99.90;;;;;;5069998;28;20176;-42
2021/12/28 03:09:18;;;;;;;8.60;3.33;;;9.00;99.90;;;;;;5061513;28;20426;-42
2021/12/28 03:11:44;;;;;;;9.90;3.80;;;9.10;99.90;;;;;;5069514;28;20550;-45
2021/12/28 03:14:10;;;;;;;9.07;3.80;;;9.20;99.90;;;;;;5069524;28;20419;-44
2021/12/28 03:16:36;;;;;;;9.10;3.20;;;9.40;99.90;;;;;;5069433;28;20631;-42
2021/12/28 03:19:03;;;;;;;11.50;3.20;;;9.20;99.90;;;;;;5079332;28;20550;-43
2021/12/28 03:21:30;;;;;;;11.93;3.67;;;9.10;99.90;;;;;;5089612;28;20473;-42
2021/12/28 03:23:57;;;;;;;5.83;2.90;;;9.40;99.90;;;;;;5069834;28;20477;-43
2021/12/28 03:26:23;;;;;;;9.20;4.33;;;9.30;99.90;;;;;;5069141;28;20543;-43
2021/12/28 03:28:49;;;;;;;13.20;3.73;;;9.20;99.90;;;;;;5069512;28;20419;-45
2021/12/28 03:31:19;;;;;;;7.40;3.30;;;9.50;99.90;;;;;;5069310;28;20426;-42
2021/12/28 03:33:47;;;;;;;8.07;3.93;;;9.30;99.90;;;;;;5067709;28;20419;-42
2021/12/28 03:36:16;;;;;;;9.17;3.50;;;9.40;99.90;;;;;;5069307;28;20411;-43
2021/12/28 03:38:44;;;;;;;9.23;3.17;;;9.30;99.90;;;;;;5059518;28;20428;-44
2021/12/28 03:41:10;;;;;;;10.93;3.67;;;9.60;99.90;;;;;;5067613;28;20451;-43
2021/12/28 03:43:39;;;;;;;11.77;3.93;;;9.30;99.90;;;;;;5068683;28;20434;-43
2021/12/28 03:46:06;;;;;;;14.07;3.20;;;9.40;99.90;;;;;;5069409;28;20438;-43
2021/12/28 03:48:33;;;;;;;7.80;3.40;;;9.30;99.90;;;;;;5069068;28;20801;-43
2021/12/28 03:50:58;;;;;;;10.97;3.73;;;9.30;99.90;;;;;;5069469;28;20411;-42
2021/12/28 03:53:24;;;;;;;5.17;2.80;;;9.40;99.90;;;;;;5063437;28;20438;-42
2021/12/28 03:55:50;;;;;;;11.27;3.10;;;9.30;99.90;;;;;;5067305;28;20948;-44
2021/12/28 03:58:16;;;;;;;7.60;3.10;;;9.40;99.90;;;;;;5068656;28;20326;-45
2021/12/28 04:00:44;;;;;;;9.03;3.03;;;9.40;99.90;;;;;;5068945;28;20462;-43
2021/12/28 04:03:12;;;;;;;12.63;3.00;;;9.50;99.90;;;;;;5068536;28;20204;-43
2021/12/28 04:05:39;;;;;;;13.30;3.87;;;9.50;99.90;;;;;;5069019;28;20447;-44
2021/12/28 04:08:05;;;;;;;6.90;3.03;;;9.40;99.90;;;;;;5066082;28;20416;-43
2021/12/28 04:10:49;;;;;;;10.73;3.37;;;9.60;99.90;;;;;;5056330;28;20437;-43
2021/12/28 04:13:15;;;;;;;8.13;3.00;;;9.50;99.90;;;;;;5067820;28;20430;-44
2021/12/28 04:15:41;;;;;;;6.73;3.30;;;9.50;99.90;;;;;;5068893;28;20419;-44
2021/12/28 04:18:06;;;;;;;8.47;3.07;;;9.50;99.90;;;;;;5069953;28;20968;-43
2021/12/28 04:20:32;;;;;;;14.30;3.87;;;9.40;99.90;;;;;;5088973;28;20219;-43
2021/12/28 04:22:58;;;;;;;11.37;4.30;;;9.50;99.90;;;;;;5087708;28;20195;-43
2021/12/28 04:25:23;;;;;;;10.83;2.97;;;9.60;99.90;;;;;;5065262;28;20833;-43
2021/12/28 04:27:49;;;;;;;14.27;4.80;;;9.50;99.90;;;;;;5067331;28;20196;-42
2021/12/28 04:30:16;;;;;;;11.23;3.13;;;9.60;99.90;;;;;;5068819;28;20185;-42
2021/12/28 04:32:43;;;;;;;6.20;2.90;;;9.60;99.90;;;;;;5068241;28;20338;-43
2021/12/28 04:35:09;;;;;;;9.73;4.93;;;9.50;99.90;;;;;;5068741;28;20509;-42
2021/12/28 04:37:35;;;;;;;9.10;3.50;;;9.60;99.90;;;;;;5067839;28;20423;-43
2021/12/28 04:40:01;;;;;;;15.67;3.93;;;9.70;99.90;;;;;;5053047;28;20466;-42
2021/12/28 04:42:29;;;;;;;8.97;3.20;;;9.40;99.90;;;;;;5068239;28;20333;-43
2021/12/28 04:44:55;;;;;;;13.60;4.03;;;9.60;99.90;;;;;;5067701;28;20216;-43
2021/12/28 04:47:20;;;;;;;15.50;4.20;;;9.60;99.90;;;;;;5068118;28;20419;-44
2021/12/28 04:49:47;;;;;;;13.43;3.60;;;9.60;99.90;;;;;;5067953;28;20422;-44
2021/12/28 04:52:13;;;;;;;9.37;3.33;;;9.70;99.90;;;;;;5067772;28;20200;-43
2021/12/28 04:54:39;;;;;;;11.60;2.73;;;9.60;99.90;;;;;;5058164;28;20432;-42
2021/12/28 04:57:05;;;;;;;7.37;3.20;;;9.70;99.90;;;;;;5065762;28;20447;-43
2021/12/28 04:59:32;;;;;;;8.80;2.33;;;9.60;99.90;;;;;;5067851;28;20546;-43
2021/12/28 05:01:57;;;;;;;11.03;3.83;;;9.60;99.90;;;;;;5067286;28;20569;-44
2021/12/28 05:04:23;;;;;;;9.67;3.13;;;9.60;99.90;;;;;;5067187;28;20895;-42
2021/12/28 05:06:51;;;;;;;10.43;2.70;;;9.60;99.90;;;;;;5067223;28;20648;-43
2021/12/28 05:09:18;;;;;;;14.10;3.27;;;9.60;99.90;;;;;;5062331;28;20669;-44
2021/12/28 05:11:45;;;;;;;10.20;3.37;;;9.70;99.90;;;;;;5064339;28;20419;-42
2021/12/28 05:14:11;;;;;;;8.87;3.07;;;9.50;99.90;;;;;;5065656;28;20838;-43
2021/12/28 05:16:37;;;;;;;7.30;3.00;;;9.70;99.90;;;;;;5067813;28;20431;-44
2021/12/28 05:19:05;;;;;;;6.60;3.00;;;9.50;99.90;;;;;;5077272;28;20787;-43
2021/12/28 05:21:31;;;;;;;8.20;2.90;;;9.60;99.90;;;;;;5087676;28;20993;-43
2021/12/28 05:23:58;;;;;;;10.63;2.67;;;9.50;99.90;;;;;;5076824;28;20529;-43
2021/12/28 05:26:24;;;;;;;16.87;3.53;;;9.70;99.90;;;;;;5064154;28;20411;-43
2021/12/28 05:28:50;;;;;;;10.50;3.90;;;9.80;99.90;;;;;;5067308;28;20417;-44
2021/12/28 05:31:16;;;;;;;9.10;4.00;;;9.70;99.90;;;;;;5067206;28;20430;-42
2021/12/28 05:33:42;;;;;;;7.43;3.03;;;9.60;99.90;;;;;;5066721;28;20450;-44
2021/12/28 05:36:08;;;;;;;8.70;4.03;;;9.60;99.90;;;;;;5067069;28;20426;-43
2021/12/28 05:38:35;;;;;;;9.23;3.40;;;9.50;99.90;;;;;;5064203;28;20429;-43
2021/12/28 05:41:01;;;;;;;13.13;3.47;;;9.60;99.90;;;;;;5053891;28;20469;-42
2021/12/28 05:43:27;;;;;;;8.23;3.80;;;9.60;99.90;;;;;;5063252;28;20796;-43
2021/12/28 05:45:53;;;;;;;6.47;3.23;;;9.80;99.90;;;;;;5059152;28;20431;-42
2021/12/28 05:48:19;;;;;;;9.13;3.57;;;9.50;99.90;;;;;;5064950;28;20408;-43
2021/12/28 05:50:44;;;;;;;8.37;4.20;;;9.50;99.90;;;;;;5067091;28;20279;-42
2021/12/28 05:53:10;;;;;;;16.60;4.13;;;9.60;99.90;;;;;;5066388;28;20185;-43
2021/12/28 05:55:36;;;;;;;15.47;5.43;;;9.50;99.90;;;;;;5058024;28;20196;-42
2021/12/28 05:58:02;;;;;;;7.40;3.40;;;9.50;99.90;;;;;;5066793;28;20212;-42
2021/12/28 06:00:28;;;;;;;6.67;3.13;;;9.50;99.90;;;;;;5066825;28;20586;-43
2021/12/28 06:02:56;;;;;;;5.83;3.30;;;9.50;99.90;;;;;;5065495;28;20419;-42
2021/12/28 06:05:22;;;;;;;7.30;2.97;;;9.50;99.90;;;;;;5083790;28;20532;-43
2021/12/28 06:07:47;;;;;;;6.10;3.80;;;9.50;99.90;;;;;;5087120;28;20505;-43
2021/12/28 06:10:14;;;;;;;6.17;4.03;;;9.50;99.90;;;;;;5064791;28;20534;-44
2021/12/28 06:12:40;;;;;;;5.43;3.90;;;9.50;99.90;;;;;;5066229;28;20189;-43
2021/12/28 06:15:07;;;;;;;11.73;4.17;;;9.50;99.90;;;;;;5065443;28;20450;-43
2021/12/28 06:17:33;;;;;;;7.23;4.40;;;9.50;99.90;;;;;;5066388;28;20836;-43
2021/12/28 06:19:58;;;;;;;8.40;4.23;;;9.50;99.90;;;;;;5083805;28;20422;-43
2021/12/28 06:22:24;;;;;;;6.97;3.60;;;9.50;99.90;;;;;;5086858;28;20936;-45
2021/12/28 06:24:50;;;;;;;8.80;3.73;;;9.70;99.90;;;;;;5073104;28;21064;-43
2021/12/28 06:27:17;;;;;;;8.67;4.60;;;9.50;99.90;;;;;;5057839;28;20207;-42
2021/12/28 06:29:42;;;;;;;8.23;3.60;;;9.50;99.90;;;;;;5066719;28;20803;-43
2021/12/28 06:32:08;;;;;;;9.23;3.40;;;9.60;99.90;;;;;;5066712;28;20419;-43
2021/12/28 06:34:34;;;;;;;4.53;3.70;;;9.80;99.90;;;;;;5065916;28;20556;-43
2021/12/28 06:37:00;;;;;;;8.70;3.47;;;9.60;99.90;;;;;;5066841;28;20181;-43
2021/12/28 06:39:25;;;;;;;9.03;3.80;;;9.60;99.90;;;;;;5079259;28;20185;-42
2021/12/28 06:41:51;;;;;;;9.43;3.80;;;9.70;99.90;;;;;;5061702;28;20852;-45
2021/12/28 06:44:17;;;;;;;7.67;3.93;;;9.70;99.90;;;;;;5065411;28;20191;-43
2021/12/28 06:46:42;;;;;;;6.70;3.27;;;9.70;99.90;;;;;;5066004;28;20355;-44
2021/12/28 06:49:08;;;;;;;5.07;2.93;;;9.70;99.90;;;;;;5066540;28;20181;-44
2021/12/28 06:51:34;;;;;;;5.33;2.90;;;9.80;99.90;;;;;;5066541;28;20185;-44
2021/12/28 06:54:00;;;;;;;6.87;3.40;;;9.70;99.90;;;;;;5065688;28;20600;-43
2021/12/28 06:56:26;;;;;;;4.60;2.40;;;9.80;99.90;;;;;;5057902;28;20189;-43
2021/12/28 06:58:52;;;;;;;5.83;3.33;;;10.00;99.90;;;;;;5066104;28;20526;-44
2021/12/28 07:01:17;;;;;;;4.60;2.97;;;9.90;99.90;;;;;;5076945;28;20204;-44
2021/12/28 07:03:43;;;;;;;7.87;3.70;;;9.70;99.90;;;;;;5079665;28;20180;-43
2021/12/28 07:06:10;;;;;;;6.10;3.03;;;9.70;99.90;;;;;;5076738;28;20177;-42
2021/12/28 07:08:36;;;;;;;5.27;3.57;;;9.50;99.90;;;;;;5065835;28;20178;-48
2021/12/28 07:11:03;;;;;;;3.80;2.87;;;9.60;99.90;;;;;;5053370;28;20451;-44
2021/12/28 07:13:29;;;;;;;7.00;2.57;;;9.60;99.90;;;;;;5065190;28;20407;-44
2021/12/28 07:15:55;;;;;;;6.73;3.07;;;9.80;99.90;;;;;;5069819;28;21166;-42
2021/12/28 07:18:21;;;;;;;6.30;3.10;;;9.60;99.90;;;;;;5067891;28;20426;-42
2021/12/28 07:20:48;;;;;;;5.27;3.23;;;9.70;99.90;;;;;;5086169;28;20743;-44
2021/12/28 07:23:14;;;;;;;5.03;2.70;;;9.70;99.90;;;;;;5085486;28;20617;-43
2021/12/28 07:25:40;;;;;;;4.63;2.90;;;9.60;99.90;;;;;;5069113;28;20437;-44
2021/12/28 07:28:07;;;;;;;8.27;3.10;;;9.70;99.90;;;;;;5064275;28;20485;-43
2021/12/28 07:30:32;;;;;;;6.43;3.67;;;9.50;99.90;;;;;;5069190;28;20518;-43
2021/12/28 07:32:58;;;;;;;4.40;2.60;;;9.60;99.90;;;;;;5068976;28;20910;-42
2021/12/28 07:35:24;;;;;;;7.20;3.20;;;9.60;99.90;;;;;;5069544;28;20419;-46
2021/12/28 07:37:50;;;;;;;8.20;2.60;;;9.70;99.90;;;;;;5081344;28;20772;-43
2021/12/28 07:40:15;;;;;;;3.10;2.63;;;9.60;99.90;;;;;;5062328;28;20924;-45
2021/12/28 07:42:42;;;;;;;4.00;2.40;;;9.60;99.90;;;;;;5072047;28;20185;-43
2021/12/28 07:45:10;;;;;;;5.10;2.70;;;9.60;99.90;;;;;;5068491;28;20169;-42
2021/12/28 07:47:36;;;;;;;5.70;3.00;;;9.70;99.90;;;;;;5070427;28;20430;-43
2021/12/28 07:50:03;;;;;;;5.07;2.27;;;9.70;99.90;;;;;;5070399;28;20548;-43
2021/12/28 07:52:29;;;;;;;4.57;2.17;;;9.60;99.90;;;;;;5069909;28;20465;-44
2021/12/28 07:54:55;;;;;;;3.13;1.90;;;9.60;99.90;;;;;;5072429;28;20420;-43
2021/12/28 07:57:20;;;;;;;4.30;2.70;;;9.60;99.90;;;;;;5064256;28;20450;-44
2021/12/28 07:59:46;;;;;;;4.40;3.07;;;9.50;99.90;;;;;;5068961;28;20189;-43
2021/12/28 08:02:12;;;;;;;5.20;1.97;;;9.60;99.90;;;;;;5068910;28;20280;-43
2021/12/28 08:04:37;;;;;;;5.60;2.43;;;9.80;99.90;;;;;;5067067;28;20177;-43
2021/12/28 08:07:03;;;;;;;5.10;2.37;;;9.60;99.90;;;;;;5069045;28;20427;-44
2021/12/28 08:09:29;;;;;;;5.47;1.97;;;9.70;99.90;;;;;;5068741;28;20622;-43
2021/12/28 08:11:55;;;;;;;4.57;2.50;;;9.80;99.90;;;;;;5059454;28;20601;-44
2021/12/28 08:14:20;;;;;;;2.00;1.60;;;9.90;99.90;;;;;;5068233;28;20189;-43
2021/12/28 08:16:46;;;;;;;4.53;1.83;;;9.70;99.90;;;;;;5069101;28;20925;-42
2021/12/28 08:19:12;;;;;;;3.97;2.40;;;9.70;99.90;;;;;;5068723;28;20613;-43
2021/12/28 08:21:38;;;;;;;1.83;1.63;;;9.70;99.90;;;;;;5086307;28;20295;-43
2021/12/28 08:24:06;;;;;;;4.00;2.00;;;9.60;99.90;;;;;;5088330;28;20188;-45
2021/12/28 08:26:31;;;;;;;3.77;2.00;;;9.60;99.90;;;;;;5056977;28;20197;-44
2021/12/28 08:28:57;;;;;;;5.40;1.90;;;9.80;99.90;;;;;;5068168;28;20779;-43
2021/12/28 08:31:23;;;;;;;2.30;1.50;;;9.80;99.90;;;;;;5068523;28;20957;-43
2021/12/28 08:33:48;;;;;;;2.33;1.63;;;9.90;99.90;;;;;;5067474;28;20547;-43
2021/12/28 08:36:14;;;;;;;3.27;2.07;;;10.10;99.90;;;;;;5086665;28;20200;-43
2021/12/28 08:38:41;;;;;;;3.83;1.50;;;10.00;99.90;;;;;;5085965;28;20198;-45
2021/12/28 08:41:07;;;;;;;3.10;1.93;;;9.90;99.90;;;;;;5068179;28;20221;-43
2021/12/28 08:43:32;;;;;;;1.90;1.50;;;10.00;99.90;;;;;;5067659;28;20580;-43
2021/12/28 08:45:58;;;;;;;1.90;1.70;;;9.90;99.90;;;;;;5068008;28;20181;-44
2021/12/28 08:48:24;;;;;;;4.47;1.63;;;10.10;99.90;;;;;;5068003;28;20196;-44
2021/12/28 08:50:50;;;;;;;2.50;1.30;;;10.10;99.90;;;;;;5068016;28;20216;-44
2021/12/28 08:53:15;;;;;;;3.37;1.40;;;10.10;99.90;;;;;;5067363;28;20216;-46
2021/12/28 08:55:41;;;;;;;2.30;1.40;;;10.10;99.90;;;;;;5061890;28;20627;-43
2021/12/28 08:58:07;;;;;;;2.93;1.17;;;10.00;99.90;;;;;;5058743;28;20248;-46
2021/12/28 09:00:34;;;;;;;1.97;1.10;;;10.10;99.90;;;;;;5067612;28;20213;-43
2021/12/28 09:03:00;;;;;;;2.50;1.10;;;10.20;99.90;;;;;;5067126;28;20836;-43
2021/12/28 09:05:29;;;;;;;2.40;1.40;;;10.10;99.90;;;;;;5067637;28;20415;-43
2021/12/28 09:07:55;;;;;;;2.83;1.27;;;10.20;99.90;;;;;;5068014;28;20423;-44
2021/12/28 09:10:22;;;;;;;1.87;0.90;;;10.10;99.90;;;;;;5063243;28;20436;-43
2021/12/28 09:12:48;;;;;;;2.53;1.40;;;10.20;99.90;;;;;;5059531;28;20871;-45
2021/12/28 09:15:14;;;;;;;2.43;1.60;;;10.20;99.90;;;;;;5067236;28;20423;-43
2021/12/28 09:17:41;;;;;;;1.77;1.30;;;10.60;99.90;;;;;;5067481;28;20272;-46
2021/12/28 09:20:13;;;;;;;1.40;1.10;;;10.50;99.90;;;;;;5077537;28;20840;-43
2021/12/28 09:22:39;;;;;;;1.10;1.00;;;10.90;99.90;;;;;;5087302;28;20441;-46
2021/12/28 09:25:05;;;;;;;2.20;1.40;;;10.90;99.90;;;;;;5074201;28;20420;-43
2021/12/28 09:27:31;;;;;;;2.33;1.10;;;10.90;99.90;;;;;;5053484;28;20837;-44
2021/12/28 09:29:57;;;;;;;3.20;1.43;;;10.90;99.90;;;;;;5067374;28;20423;-44
2021/12/28 09:32:23;;;;;;;1.47;1.10;;;10.90;99.90;;;;;;5067330;28;20185;-43
2021/12/28 09:34:52;;;;;;;1.80;1.10;;;10.80;99.90;;;;;;5066837;28;20176;-43
2021/12/28 09:37:19;;;;;;;1.93;1.20;;;10.70;99.90;;;;;;5067060;28;20412;-43
2021/12/28 09:39:46;;;;;;;4.20;1.10;;;10.90;99.90;;;;;;5066218;28;20438;-43
2021/12/28 09:42:12;;;;;;;2.40;1.23;;;10.60;99.90;;;;;;5053817;28;20467;-43
2021/12/28 09:44:38;;;;;;;3.20;1.10;;;10.60;99.90;;;;;;5066322;28;20788;-44
2021/12/28 09:47:05;;;;;;;1.87;1.40;;;10.70;99.90;;;;;;5067168;28;20419;-42
2021/12/28 09:49:31;;;;;;;1.13;0.83;;;10.70;99.90;;;;;;5067365;28;20795;-44
2021/12/28 09:52:00;;;;;;;3.30;1.60;;;10.80;99.90;;;;;;5066658;28;20423;-44
2021/12/28 09:54:28;;;;;;;1.80;1.30;;;10.90;99.90;;;;;;5066281;28;20845;-43
2021/12/28 09:56:56;;;;;;;1.43;1.20;;;11.00;99.90;;;;;;5054907;28;20590;-46
2021/12/28 09:59:23;;;;;;;2.70;1.07;;;11.20;99.90;;;;;;5064058;28;20787;-47
2021/12/28 10:01:49;;;;;;;2.40;1.00;;;11.50;99.90;;;;;;5066816;28;20554;-44
2021/12/28 10:04:18;;;;;;;2.10;1.03;;;11.50;99.90;;;;;;5065942;28;20411;-43
2021/12/28 10:06:44;;;;;;;1.37;0.93;;;11.50;99.90;;;;;;5066343;28;20514;-43
2021/12/28 10:09:14;;;;;;;1.23;1.13;;;11.40;99.90;;;;;;5066771;28;20503;-43
2021/12/28 10:11:44;;;;;;;1.50;1.20;;;11.30;99.90;;;;;;5059315;28;20794;-43
2021/12/28 10:14:22;;;;;;;1.27;1.07;;;11.30;99.90;;;;;;5065733;28;20423;-44
2021/12/28 10:16:53;;;;;;;2.07;0.93;;;11.40;99.90;;;;;;5066619;28;20516;-43
2021/12/28 10:19:41;;;;;;;2.10;0.93;;;11.30;99.90;;;;;;5058292;28;20420;-43
2021/12/28 10:22:21;;;;;;;2.87;1.30;;;11.20;99.90;;;;;;5055076;28;20842;-43
2021/12/28 10:24:49;;;;;;;1.10;0.80;;;11.30;99.90;;;;;;5065870;28;20422;-42
2021/12/28 10:27:18;;;;;;;1.60;0.87;;;11.20;99.90;;;;;;5061087;28;20463;-44
2021/12/28 10:29:43;;;;;;;0.60;0.60;;;11.20;99.90;;;;;;5066364;28;20453;-43
2021/12/28 10:32:28;;;;;;;1.57;1.03;;;11.20;99.90;;;;;;5066542;28;20427;-43
2021/12/28 10:34:59;;;;;;;3.00;1.33;;;11.00;99.90;;;;;;5065852;28;20427;-45
2021/12/28 10:37:28;;;;;;;1.90;0.80;;;11.10;99.90;;;;;;5066419;28;20937;-45
2021/12/28 10:39:58;;;;;;;1.73;1.00;;;10.80;99.90;;;;;;5065211;28;20423;-45
2021/12/28 10:42:44;;;;;;;1.20;0.77;;;10.90;99.90;;;;;;5055625;28;20857;-45
2021/12/28 10:45:46;;;;;;;0.97;0.93;;;10.80;99.90;;;;;;5066090;28;20445;-43
2021/12/28 10:48:17;;;;;;;1.63;0.80;;;10.70;99.90;;;;;;5048425;28;20431;-46
2021/12/28 10:50:46;;;;;;;0.73;0.70;;;10.70;99.90;;;;;;5064973;28;20829;-45
2021/12/28 10:53:25;;;;;;;0.60;0.60;;;10.70;99.90;;;;;;5065747;28;20436;-43
2021/12/28 10:55:57;;;;;;;0.90;0.70;;;10.80;99.90;;;;;;5061504;28;20973;-44
2021/12/28 10:58:41;;;;;;;0.60;0.40;;;10.50;99.90;;;;;;5058872;28;20451;-42
2021/12/28 11:01:10;;;;;;;0.60;0.50;;;10.80;99.90;;;;;;5066287;28;20474;-45
2021/12/28 11:03:40;;;;;;;0.90;0.60;;;10.80;99.90;;;;;;5069705;28;20936;-44
2021/12/28 11:06:12;;;;;;;0.70;0.60;;;10.70;99.90;;;;;;5069989;28;20422;-43
2021/12/28 11:08:38;;;;;;;0.70;0.60;;;10.60;99.90;;;;;;5070558;28;20420;-46
2021/12/28 11:11:08;;;;;;;1.13;0.80;;;10.70;99.90;;;;;;5066769;28;20821;-45
2021/12/28 11:13:35;;;;;;;0.87;0.70;;;10.60;99.90;;;;;;5063877;28;20827;-44
2021/12/28 11:16:02;;;;;;;2.27;0.80;;;10.80;99.90;;;;;;5083421;28;20486;-43
2021/12/28 11:18:30;;;;;;;1.47;0.73;;;10.60;99.90;;;;;;5073908;28;20565;-44
2021/12/28 11:20:58;;;;;;;2.30;0.70;;;10.70;99.90;;;;;;5086598;28;20497;-44
2021/12/28 11:23:29;;;;;;;1.40;0.90;;;10.60;99.90;;;;;;5089613;28;20422;-45
2021/12/28 11:26:12;;;;;;;1.67;0.50;;;10.70;99.90;;;;;;5062948;28;20485;-42
2021/12/28 11:28:40;;;;;;;1.23;0.87;;;10.60;99.90;;;;;;5063857;28;20419;-43
2021/12/28 11:31:20;;;;;;;0.60;0.60;;;10.80;99.90;;;;;;5069401;28;20427;-43
2021/12/28 11:33:51;;;;;;;1.17;0.87;;;10.60;99.90;;;;;;5068981;28;20426;-43
2021/12/28 11:36:19;;;;;;;0.80;0.80;;;10.70;99.90;;;;;;5068970;28;20423;-43
2021/12/28 11:38:45;;;;;;;1.20;1.10;;;10.70;99.90;;;;;;5068537;28;20664;-44
2021/12/28 11:41:11;;;;;;;0.77;0.77;;;10.70;99.90;;;;;;5066732;28;20515;-43
2021/12/28 11:43:39;;;;;;;2.83;0.73;;;10.70;99.90;;;;;;5061689;28;20442;-43
2021/12/28 11:46:05;;;;;;;1.57;0.80;;;10.60;99.90;;;;;;5069070;28;20467;-45
2021/12/28 11:48:32;;;;;;;1.83;1.00;;;10.90;99.90;;;;;;5069427;28;20569;-43
2021/12/28 11:50:58;;;;;;;1.03;0.93;;;10.70;99.90;;;;;;5068972;28;20415;-46
2021/12/28 11:53:25;;;;;;;1.90;1.00;;;10.90;99.90;;;;;;5068410;28;20794;-44
2021/12/28 11:55:51;;;;;;;1.30;1.10;;;10.70;99.90;;;;;;5069328;28;20808;-45
2021/12/28 11:58:17;;;;;;;1.10;0.87;;;10.70;99.90;;;;;;5054744;28;20500;-44
2021/12/28 12:00:44;;;;;;;0.70;0.70;;;10.70;99.90;;;;;;5068869;28;20466;-44
2021/12/28 12:03:39;;;;;;;2.30;0.90;;;10.70;99.90;;;;;;5068203;28;20192;-43
2021/12/28 12:06:04;;;;;;;1.40;1.00;;;10.60;99.90;;;;;;5069016;28;20423;-43
2021/12/28 12:08:30;;;;;;;1.00;0.90;;;10.70;99.90;;;;;;5068867;28;20830;-44
2021/12/28 12:11:03;;;;;;;0.90;0.87;;;10.70;99.90;;;;;;5069274;28;20223;-45
2021/12/28 12:13:30;;;;;;;1.10;0.93;;;10.70;99.90;;;;;;5055063;28;20278;-44
2021/12/28 12:15:57;;;;;;;0.87;0.80;;;10.70;99.90;;;;;;5068487;28;20824;-44
2021/12/28 12:18:29;;;;;;;0.87;0.80;;;10.80;99.90;;;;;;5072720;28;20437;-45
2021/12/28 12:21:03;;;;;;;0.80;0.80;;;10.60;99.90;;;;;;5078566;28;20638;-43
2021/12/28 12:23:38;;;;;;;1.77;1.20;;;11.00;99.90;;;;;;5087720;28;20929;-43
2021/12/28 12:26:08;;;;;;;1.53;1.23;;;10.80;99.90;;;;;;5061265;28;20424;-43
2021/12/28 12:28:43;;;;;;;1.40;1.07;;;10.90;99.90;;;;;;5060003;28;20435;-43
2021/12/28 12:31:19;;;;;;;1.10;0.80;;;10.70;99.90;;;;;;5068815;28;20419;-43
2021/12/28 12:33:44;;;;;;;1.50;0.93;;;10.70;99.90;;;;;;5067804;28;20419;-43
2021/12/28 12:36:30;;;;;;;2.50;1.00;;;10.60;99.90;;;;;;5068586;28;20431;-43
2021/12/28 12:38:57;;;;;;;0.80;0.80;;;10.90;99.90;;;;;;5067480;28;20620;-43
2021/12/28 12:41:49;;;;;;;1.50;0.97;;;10.60;99.90;;;;;;5067638;28;21027;-46
2021/12/28 12:44:26;;;;;;;1.27;0.90;;;10.60;99.90;;;;;;5059957;28;20498;-44
2021/12/28 12:46:53;;;;;;;1.00;0.80;;;10.60;99.90;;;;;;5068463;28;20450;-43
2021/12/28 12:49:20;;;;;;;0.80;0.80;;;10.70;99.90;;;;;;5068018;28;20419;-42
2021/12/28 12:51:49;;;;;;;1.00;0.90;;;10.60;99.90;;;;;;5068586;28;20423;-43
2021/12/28 12:54:30;;;;;;;2.00;1.13;;;10.60;99.90;;;;;;5067328;28;20558;-44